sensor_id;sensor_type;location;lat;lon;timestamp;pressure;altitude;pressure_sealevel;temperature;humidity
11542;BME280;5827;49.482;7.716;2023-03-11T00:00:32;97869.22;;;2.64;69.92
11542;BME280;5827;49.482;7.716;2023-03-11T00:02:34;97872.47;;;2.66;69.43
11542;BME280;5827;49.482;7.716;2023-03-11T00:04:35;97887.06;;;2.69;70.78
11542;BME280;5827;49.482;7.716;2023-03-11T00:06:37;97877.59;;;2.61;70.27
11542;BME280;5827;49.482;7.716;2023-03-11T00:08:39;97874.94;;;2.61;70.42
11542;BME280;5827;49.482;7.716;2023-03-11T00:10:42;97875.94;;;2.60;71.28
11542;BME280;5827;49.482;7.716;2023-03-11T00:12:44;97884.00;;;2.72;72.26
11542;BME280;5827;49.482;7.716;2023-03-11T00:14:46;97881.84;;;2.62;72.17
11542;BME280;5827;49.482;7.716;2023-03-11T00:16:48;97880.00;;;2.63;72.67
11542;BME280;5827;49.482;7.716;2023-03-11T00:18:50;97885.81;;;2.46;72.04
11542;BME280;5827;49.482;7.716;2023-03-11T00:20:52;97885.56;;;2.54;71.26
11542;BME280;5827;49.482;7.716;2023-03-11T00:22:54;97896.34;;;2.53;72.48
11542;BME280;5827;49.482;7.716;2023-03-11T00:24:56;97899.41;;;2.50;72.03
11542;BME280;5827;49.482;7.716;2023-03-11T00:26:58;97884.75;;;2.54;72.24
11542;BME280;5827;49.482;7.716;2023-03-11T00:28:59;97892.28;;;2.50;71.95
11542;BME280;5827;49.482;7.716;2023-03-11T00:31:01;97892.91;;;2.46;72.96
11542;BME280;5827;49.482;7.716;2023-03-11T00:33:04;97893.72;;;2.46;72.96
11542;BME280;5827;49.482;7.716;2023-03-11T00:35:07;97893.16;;;2.44;73.50
11542;BME280;5827;49.482;7.716;2023-03-11T00:37:09;97906.94;;;2.46;74.20
11542;BME280;5827;49.482;7.716;2023-03-11T00:39:10;97901.50;;;2.41;74.26
11542;BME280;5827;49.482;7.716;2023-03-11T00:41:12;97915.56;;;2.35;74.87
11542;BME280;5827;49.482;7.716;2023-03-11T00:43:14;97906.81;;;2.35;74.81
11542;BME280;5827;49.482;7.716;2023-03-11T00:45:16;97899.91;;;2.34;75.12
11542;BME280;5827;49.482;7.716;2023-03-11T00:47:17;97901.22;;;2.18;76.05
11542;BME280;5827;49.482;7.716;2023-03-11T00:49:20;97882.38;;;2.08;76.17
11542;BME280;5827;49.482;7.716;2023-03-11T00:51:21;97884.38;;;2.06;76.18
11542;BME280;5827;49.482;7.716;2023-03-11T00:53:23;97870.59;;;1.97;76.08
11542;BME280;5827;49.482;7.716;2023-03-11T00:55:26;97884.63;;;2.04;76.23
11542;BME280;5827;49.482;7.716;2023-03-11T00:57:29;97877.66;;;2.10;76.11
11542;BME280;5827;49.482;7.716;2023-03-11T00:59:30;97895.34;;;2.09;75.82
11542;BME280;5827;49.482;7.716;2023-03-11T01:01:32;97893.38;;;1.98;76.33
11542;BME280;5827;49.482;7.716;2023-03-11T01:03:33;97911.69;;;1.93;76.88
11542;BME280;5827;49.482;7.716;2023-03-11T01:05:36;97893.41;;;1.91;77.27
11542;BME280;5827;49.482;7.716;2023-03-11T01:07:38;97920.25;;;1.88;77.38
11542;BME280;5827;49.482;7.716;2023-03-11T01:09:40;97893.84;;;1.82;77.96
11542;BME280;5827;49.482;7.716;2023-03-11T01:11:41;97900.97;;;1.81;78.07
11542;BME280;5827;49.482;7.716;2023-03-11T01:13:43;97898.50;;;1.86;77.65
11542;BME280;5827;49.482;7.716;2023-03-11T01:15:44;97891.38;;;1.93;78.49
11542;BME280;5827;49.482;7.716;2023-03-11T01:17:46;97891.56;;;1.92;77.76
11542;BME280;5827;49.482;7.716;2023-03-11T01:19:47;97894.25;;;1.78;77.90
11542;BME280;5827;49.482;7.716;2023-03-11T01:21:50;97897.69;;;1.86;77.88
11542;BME280;5827;49.482;7.716;2023-03-11T01:23:52;97897.72;;;1.79;78.33
11542;BME280;5827;49.482;7.716;2023-03-11T01:25:53;97893.03;;;1.81;77.89
11542;BME280;5827;49.482;7.716;2023-03-11T01:27:55;97909.69;;;1.82;77.49
11542;BME280;5827;49.482;7.716;2023-03-11T01:29:56;97910.13;;;1.72;77.69
11542;BME280;5827;49.482;7.716;2023-03-11T01:31:58;97892.03;;;1.75;77.84
11542;BME280;5827;49.482;7.716;2023-03-11T01:33:59;97900.38;;;1.72;78.39
11542;BME280;5827;49.482;7.716;2023-03-11T01:36:01;97907.09;;;1.68;78.59
11542;BME280;5827;49.482;7.716;2023-03-11T01:38:04;97903.84;;;1.66;79.30
11542;BME280;5827;49.482;7.716;2023-03-11T01:40:10;97909.31;;;1.65;79.59
11542;BME280;5827;49.482;7.716;2023-03-11T01:42:13;97910.38;;;1.57;80.08
11542;BME280;5827;49.482;7.716;2023-03-11T01:44:14;97927.84;;;1.51;80.56
11542;BME280;5827;49.482;7.716;2023-03-11T01:46:18;97929.69;;;1.44;80.87
11542;BME280;5827;49.482;7.716;2023-03-11T01:48:21;97932.53;;;1.36;81.43
11542;BME280;5827;49.482;7.716;2023-03-11T01:50:24;97935.38;;;1.41;81.53
11542;BME280;5827;49.482;7.716;2023-03-11T01:52:26;97925.03;;;1.40;81.80
11542;BME280;5827;49.482;7.716;2023-03-11T01:54:31;97944.69;;;1.37;81.43
11542;BME280;5827;49.482;7.716;2023-03-11T01:56:34;97941.88;;;1.39;81.80
11542;BME280;5827;49.482;7.716;2023-03-11T01:58:38;97934.97;;;1.38;81.23
11542;BME280;5827;49.482;7.716;2023-03-11T02:00:44;97924.81;;;1.41;82.18
11542;BME280;5827;49.482;7.716;2023-03-11T02:02:49;97928.47;;;1.27;81.98
11542;BME280;5827;49.482;7.716;2023-03-11T02:04:53;97922.38;;;1.40;82.77
11542;BME280;5827;49.482;7.716;2023-03-11T02:06:55;97918.53;;;1.36;85.07
11542;BME280;5827;49.482;7.716;2023-03-11T02:08:58;97916.69;;;1.36;85.06
11542;BME280;5827;49.482;7.716;2023-03-11T02:11:04;97907.81;;;1.24;83.54
11542;BME280;5827;49.482;7.716;2023-03-11T02:13:06;97910.81;;;1.27;83.33
11542;BME280;5827;49.482;7.716;2023-03-11T02:15:10;97914.88;;;1.30;83.11
11542;BME280;5827;49.482;7.716;2023-03-11T02:17:12;97908.19;;;1.27;82.48
11542;BME280;5827;49.482;7.716;2023-03-11T02:19:20;97893.41;;;1.20;82.77
11542;BME280;5827;49.482;7.716;2023-03-11T02:21:26;97897.25;;;1.24;82.54
11542;BME280;5827;49.482;7.716;2023-03-11T02:23:33;97902.91;;;1.27;82.69
11542;BME280;5827;49.482;7.716;2023-03-11T02:25:40;97905.97;;;1.18;82.59
11542;BME280;5827;49.482;7.716;2023-03-11T02:27:47;97903.75;;;1.15;82.75
11542;BME280;5827;49.482;7.716;2023-03-11T02:29:50;97904.31;;;1.23;82.35
11542;BME280;5827;49.482;7.716;2023-03-11T02:31:53;97901.91;;;1.15;82.97
11542;BME280;5827;49.482;7.716;2023-03-11T02:33:57;97905.56;;;1.21;82.29
11542;BME280;5827;49.482;7.716;2023-03-11T02:36:00;97903.34;;;1.11;83.07
11542;BME280;5827;49.482;7.716;2023-03-11T02:38:02;97906.97;;;1.04;82.51
11542;BME280;5827;49.482;7.716;2023-03-11T02:40:33;97911.25;;;1.11;82.69
11542;BME280;5827;49.482;7.716;2023-03-11T02:42:36;97912.47;;;1.09;82.56
11542;BME280;5827;49.482;7.716;2023-03-11T02:44:41;97915.72;;;1.04;83.16
11542;BME280;5827;49.482;7.716;2023-03-11T02:46:44;97910.84;;;1.01;82.92
11542;BME280;5827;49.482;7.716;2023-03-11T02:48:47;97905.78;;;1.06;82.90
11542;BME280;5827;49.482;7.716;2023-03-11T02:50:49;97904.56;;;1.02;83.34
11542;BME280;5827;49.482;7.716;2023-03-11T02:52:51;97901.91;;;0.89;84.43
11542;BME280;5827;49.482;7.716;2023-03-11T02:54:52;97905.56;;;0.94;83.89
11542;BME280;5827;49.482;7.716;2023-03-11T02:56:54;97909.81;;;0.95;84.21
11542;BME280;5827;49.482;7.716;2023-03-11T02:58:56;97905.97;;;0.85;83.93
11542;BME280;5827;49.482;7.716;2023-03-11T03:00:58;97902.53;;;0.84;84.38
11542;BME280;5827;49.482;7.716;2023-03-11T03:03:00;97907.41;;;0.94;84.07
11542;BME280;5827;49.482;7.716;2023-03-11T03:05:02;97913.47;;;0.94;84.62
11542;BME280;5827;49.482;7.716;2023-03-11T03:07:04;97912.88;;;0.86;84.57
11542;BME280;5827;49.482;7.716;2023-03-11T03:09:05;97916.53;;;0.85;84.31
11542;BME280;5827;49.482;7.716;2023-03-11T03:11:07;97920.97;;;0.91;84.82
11542;BME280;5827;49.482;7.716;2023-03-11T03:13:08;97926.47;;;0.89;85.09
11542;BME280;5827;49.482;7.716;2023-03-11T03:15:10;97925.44;;;0.90;84.50
11542;BME280;5827;49.482;7.716;2023-03-11T03:17:14;97929.94;;;0.96;85.89
11542;BME280;5827;49.482;7.716;2023-03-11T03:19:15;97931.34;;;0.92;85.60
11542;BME280;5827;49.482;7.716;2023-03-11T03:21:17;97931.53;;;0.91;85.04
11542;BME280;5827;49.482;7.716;2023-03-11T03:23:19;97929.50;;;0.93;84.71
11542;BME280;5827;49.482;7.716;2023-03-11T03:25:20;97930.31;;;0.93;84.63
11542;BME280;5827;49.482;7.716;2023-03-11T03:27:22;97936.81;;;0.91;85.00
11542;BME280;5827;49.482;7.716;2023-03-11T03:29:24;97936.59;;;0.99;84.33
11542;BME280;5827;49.482;7.716;2023-03-11T03:31:25;97930.72;;;0.84;84.75
11542;BME280;5827;49.482;7.716;2023-03-11T03:33:29;97932.34;;;0.91;84.38
11542;BME280;5827;49.482;7.716;2023-03-11T03:35:30;97935.56;;;0.87;84.97
11542;BME280;5827;49.482;7.716;2023-03-11T03:37:33;97928.06;;;0.90;84.94
11542;BME280;5827;49.482;7.716;2023-03-11T03:39:34;97929.91;;;0.90;85.12
11542;BME280;5827;49.482;7.716;2023-03-11T03:41:36;97938.00;;;0.75;86.08
11542;BME280;5827;49.482;7.716;2023-03-11T03:43:38;97944.50;;;0.66;86.63
11542;BME280;5827;49.482;7.716;2023-03-11T03:45:39;97940.63;;;0.68;87.14
11542;BME280;5827;49.482;7.716;2023-03-11T03:47:41;97941.03;;;0.65;87.29
11542;BME280;5827;49.482;7.716;2023-03-11T03:49:44;97940.41;;;0.57;87.39
11542;BME280;5827;49.482;7.716;2023-03-11T03:51:46;97940.41;;;0.63;88.25
11542;BME280;5827;49.482;7.716;2023-03-11T03:53:47;97940.63;;;0.62;88.35
11542;BME280;5827;49.482;7.716;2023-03-11T03:55:49;97944.69;;;0.64;87.93
11542;BME280;5827;49.482;7.716;2023-03-11T03:57:51;97943.06;;;0.57;88.71
11542;BME280;5827;49.482;7.716;2023-03-11T03:59:52;97945.91;;;0.55;89.01
11542;BME280;5827;49.482;7.716;2023-03-11T04:01:54;97942.00;;;0.44;89.27
11542;BME280;5827;49.482;7.716;2023-03-11T04:03:55;97952.19;;;0.61;89.47
11542;BME280;5827;49.482;7.716;2023-03-11T04:06:06;97942.84;;;0.58;90.22
11542;BME280;5827;49.482;7.716;2023-03-11T04:08:08;97943.06;;;0.57;91.30
11542;BME280;5827;49.482;7.716;2023-03-11T04:10:12;97951.56;;;0.52;91.03
11542;BME280;5827;49.482;7.716;2023-03-11T04:12:14;97947.31;;;0.51;90.82
11542;BME280;5827;49.482;7.716;2023-03-11T04:14:16;97956.81;;;0.52;91.20
11542;BME280;5827;49.482;7.716;2023-03-11T04:16:19;97960.69;;;0.56;90.64
11542;BME280;5827;49.482;7.716;2023-03-11T04:18:21;97955.22;;;0.58;91.46
11542;BME280;5827;49.482;7.716;2023-03-11T04:20:23;97958.66;;;0.52;91.36
11542;BME280;5827;49.482;7.716;2023-03-11T04:22:26;97960.25;;;0.46;92.34
11542;BME280;5827;49.482;7.716;2023-03-11T04:24:27;97956.56;;;0.40;92.71
11542;BME280;5827;49.482;7.716;2023-03-11T04:26:29;97957.22;;;0.42;92.66
11542;BME280;5827;49.482;7.716;2023-03-11T04:28:31;97959.03;;;0.42;92.52
11542;BME280;5827;49.482;7.716;2023-03-11T04:30:32;97954.56;;;0.42;93.09
11542;BME280;5827;49.482;7.716;2023-03-11T04:32:34;97953.34;;;0.38;92.44
11542;BME280;5827;49.482;7.716;2023-03-11T04:34:36;97956.78;;;0.39;93.31
11542;BME280;5827;49.482;7.716;2023-03-11T04:36:38;97952.72;;;0.36;92.89
11542;BME280;5827;49.482;7.716;2023-03-11T04:38:41;97969.53;;;0.35;94.13
11542;BME280;5827;49.482;7.716;2023-03-11T04:40:42;97970.72;;;0.26;94.21
11542;BME280;5827;49.482;7.716;2023-03-11T04:42:44;97963.84;;;0.32;94.42
11542;BME280;5827;49.482;7.716;2023-03-11T04:44:48;97965.22;;;0.21;94.83
11542;BME280;5827;49.482;7.716;2023-03-11T04:46:50;97971.91;;;0.17;94.93
11542;BME280;5827;49.482;7.716;2023-03-11T04:48:51;97968.72;;;0.28;95.03
11542;BME280;5827;49.482;7.716;2023-03-11T04:50:53;97965.66;;;0.24;95.26
11542;BME280;5827;49.482;7.716;2023-03-11T04:52:55;97965.66;;;0.24;95.27
11542;BME280;5827;49.482;7.716;2023-03-11T04:54:58;97971.06;;;0.10;95.95
11542;BME280;5827;49.482;7.716;2023-03-11T04:56:59;97975.34;;;0.17;96.92
11542;BME280;5827;49.482;7.716;2023-03-11T04:59:01;97970.88;;;0.11;96.16
11542;BME280;5827;49.482;7.716;2023-03-11T05:01:02;97965.41;;;0.13;97.45
11542;BME280;5827;49.482;7.716;2023-03-11T05:03:04;97965.41;;;0.13;97.61
11542;BME280;5827;49.482;7.716;2023-03-11T05:05:07;97967.25;;;0.19;97.22
11542;BME280;5827;49.482;7.716;2023-03-11T05:07:08;97973.50;;;0.18;96.78
11542;BME280;5827;49.482;7.716;2023-03-11T05:09:10;97962.16;;;0.11;97.94
11542;BME280;5827;49.482;7.716;2023-03-11T05:11:13;97965.59;;;0.05;98.29
11542;BME280;5827;49.482;7.716;2023-03-11T05:13:14;97964.59;;;0.12;98.24
11542;BME280;5827;49.482;7.716;2023-03-11T05:15:16;97963.34;;;0.08;97.62
11542;BME280;5827;49.482;7.716;2023-03-11T05:17:17;97961.13;;;0.05;97.91
11542;BME280;5827;49.482;7.716;2023-03-11T05:19:19;97956.63;;;-0.01;97.94
11542;BME280;5827;49.482;7.716;2023-03-11T05:21:34;97960.44;;;-0.10;98.10
11542;BME280;5827;49.482;7.716;2023-03-11T05:23:35;97959.47;;;0.04;98.51
11542;BME280;5827;49.482;7.716;2023-03-11T05:25:36;97978.91;;;-0.04;98.94
11542;BME280;5827;49.482;7.716;2023-03-11T05:27:40;97971.22;;;0.02;99.16
11542;BME280;5827;49.482;7.716;2023-03-11T05:29:42;97978.69;;;-0.09;99.56
11542;BME280;5827;49.482;7.716;2023-03-11T05:31:43;97977.44;;;-0.13;99.66
11542;BME280;5827;49.482;7.716;2023-03-11T05:33:46;97974.63;;;-0.05;98.83
11542;BME280;5827;49.482;7.716;2023-03-11T05:35:47;97972.03;;;0.02;98.95
11542;BME280;5827;49.482;7.716;2023-03-11T05:37:51;97979.72;;;-0.03;99.81
11542;BME280;5827;49.482;7.716;2023-03-11T05:39:53;97978.75;;;0.05;99.12
11542;BME280;5827;49.482;7.716;2023-03-11T05:41:54;97984.03;;;0.05;99.01
11542;BME280;5827;49.482;7.716;2023-03-11T05:43:57;97990.09;;;0.05;98.83
11542;BME280;5827;49.482;7.716;2023-03-11T05:45:59;97979.94;;;0.02;98.66
11542;BME280;5827;49.482;7.716;2023-03-11T05:48:00;97982.16;;;-0.02;98.82
11542;BME280;5827;49.482;7.716;2023-03-11T05:50:03;97981.13;;;-0.01;98.99
11542;BME280;5827;49.482;7.716;2023-03-11T05:52:04;97984.59;;;0.00;99.87
11542;BME280;5827;49.482;7.716;2023-03-11T05:54:06;97977.91;;;-0.03;99.93
11542;BME280;5827;49.482;7.716;2023-03-11T05:56:14;97980.97;;;0.01;100.00
11542;BME280;5827;49.482;7.716;2023-03-11T05:58:16;97982.19;;;0.05;99.29
11542;BME280;5827;49.482;7.716;2023-03-11T06:00:19;97989.88;;;0.07;100.00
11542;BME280;5827;49.482;7.716;2023-03-11T06:02:21;97994.56;;;0.05;99.94
11542;BME280;5827;49.482;7.716;2023-03-11T06:04:23;97993.91;;;-0.04;100.00
11542;BME280;5827;49.482;7.716;2023-03-11T06:06:25;98005.00;;;-0.09;99.25
11542;BME280;5827;49.482;7.716;2023-03-11T06:08:27;97999.09;;;-0.11;100.00
11542;BME280;5827;49.482;7.716;2023-03-11T06:10:29;97993.69;;;-0.03;99.92
11542;BME280;5827;49.482;7.716;2023-03-11T06:12:32;98005.69;;;0.07;99.67
11542;BME280;5827;49.482;7.716;2023-03-11T06:14:34;98000.41;;;0.00;99.45
11542;BME280;5827;49.482;7.716;2023-03-11T06:16:39;98006.50;;;0.07;100.00
11542;BME280;5827;49.482;7.716;2023-03-11T06:18:41;98009.22;;;-0.14;100.00
11542;BME280;5827;49.482;7.716;2023-03-11T06:20:42;98010.97;;;0.07;100.00
11542;BME280;5827;49.482;7.716;2023-03-11T06:22:46;98015.63;;;0.05;100.00
11542;BME280;5827;49.482;7.716;2023-03-11T06:24:48;98023.16;;;0.14;100.00
11542;BME280;5827;49.482;7.716;2023-03-11T06:26:50;98018.28;;;0.11;98.88
11542;BME280;5827;49.482;7.716;2023-03-11T06:28:52;98024.41;;;0.18;99.68
11542;BME280;5827;49.482;7.716;2023-03-11T06:30:53;98034.53;;;0.21;98.55
11542;BME280;5827;49.482;7.716;2023-03-11T06:32:57;98040.22;;;0.18;98.08
11542;BME280;5827;49.482;7.716;2023-03-11T06:34:58;98046.47;;;0.17;98.81
11542;BME280;5827;49.482;7.716;2023-03-11T06:37:00;98048.34;;;0.23;97.95
11542;BME280;5827;49.482;7.716;2023-03-11T06:39:02;98054.78;;;0.21;99.17
11542;BME280;5827;49.482;7.716;2023-03-11T06:41:05;98054.00;;;0.27;98.65
11542;BME280;5827;49.482;7.716;2023-03-11T06:43:06;98056.47;;;0.35;98.53
11542;BME280;5827;49.482;7.716;2023-03-11T06:45:09;98054.47;;;0.37;98.79
11542;BME280;5827;49.482;7.716;2023-03-11T06:47:10;98056.09;;;0.38;98.80
11542;BME280;5827;49.482;7.716;2023-03-11T06:49:13;98059.16;;;0.42;98.27
11542;BME280;5827;49.482;7.716;2023-03-11T06:51:15;98059.97;;;0.42;98.72
11542;BME280;5827;49.482;7.716;2023-03-11T06:53:16;98064.03;;;0.45;97.96
11542;BME280;5827;49.482;7.716;2023-03-11T06:55:18;98069.72;;;0.42;98.31
11542;BME280;5827;49.482;7.716;2023-03-11T06:57:20;98068.91;;;0.41;98.51
11542;BME280;5827;49.482;7.716;2023-03-11T06:59:21;98072.56;;;0.47;98.85
11542;BME280;5827;49.482;7.716;2023-03-11T07:01:24;98075.25;;;0.60;98.73
11542;BME280;5827;49.482;7.716;2023-03-11T07:03:26;98072.19;;;0.57;97.73
11542;BME280;5827;49.482;7.716;2023-03-11T07:05:29;98081.56;;;0.66;96.97
11542;BME280;5827;49.482;7.716;2023-03-11T07:07:31;98075.53;;;0.79;96.57
11542;BME280;5827;49.482;7.716;2023-03-11T07:09:32;98078.38;;;0.84;96.42
11542;BME280;5827;49.482;7.716;2023-03-11T07:11:34;98087.72;;;0.86;96.03
11542;BME280;5827;49.482;7.716;2023-03-11T07:13:35;98096.41;;;0.80;96.27
11542;BME280;5827;49.482;7.716;2023-03-11T07:15:37;98087.91;;;0.78;95.77
11542;BME280;5827;49.482;7.716;2023-03-11T07:17:39;98093.78;;;0.80;96.15
11542;BME280;5827;49.482;7.716;2023-03-11T07:19:40;98100.72;;;0.88;95.81
11542;BME280;5827;49.482;7.716;2023-03-11T07:21:43;98103.72;;;0.85;95.24
11542;BME280;5827;49.482;7.716;2023-03-11T07:23:45;98107.03;;;1.00;95.10
11542;BME280;5827;49.482;7.716;2023-03-11T07:25:48;98103.59;;;1.06;95.08
11542;BME280;5827;49.482;7.716;2023-03-11T07:27:51;98114.38;;;1.18;94.82
11542;BME280;5827;49.482;7.716;2023-03-11T07:29:52;98109.94;;;1.25;94.29
11542;BME280;5827;49.482;7.716;2023-03-11T07:31:54;98109.13;;;1.31;93.93
11542;BME280;5827;49.482;7.716;2023-03-11T07:33:56;98126.78;;;1.31;93.38
11542;BME280;5827;49.482;7.716;2023-03-11T07:35:58;98129.44;;;1.37;92.99
11542;BME280;5827;49.482;7.716;2023-03-11T07:38:00;98133.34;;;1.48;92.94
11542;BME280;5827;49.482;7.716;2023-03-11T07:40:02;98137.00;;;1.53;92.92
11542;BME280;5827;49.482;7.716;2023-03-11T07:42:04;98135.16;;;1.54;92.38
11542;BME280;5827;49.482;7.716;2023-03-11T07:44:06;98142.06;;;1.55;92.17
11542;BME280;5827;49.482;7.716;2023-03-11T07:46:09;98155.25;;;1.55;91.18
11542;BME280;5827;49.482;7.716;2023-03-11T07:48:10;98163.81;;;1.57;90.17
11542;BME280;5827;49.482;7.716;2023-03-11T07:50:12;98161.19;;;1.70;89.97
11542;BME280;5827;49.482;7.716;2023-03-11T07:52:13;98168.09;;;1.78;89.16
11542;BME280;5827;49.482;7.716;2023-03-11T07:54:16;98175.22;;;1.91;88.76
11542;BME280;5827;49.482;7.716;2023-03-11T07:56:21;98188.44;;;2.04;88.33
11542;BME280;5827;49.482;7.716;2023-03-11T07:58:24;98185.16;;;2.15;88.21
11542;BME280;5827;49.482;7.716;2023-03-11T08:00:26;98187.03;;;2.21;87.59
11542;BME280;5827;49.482;7.716;2023-03-11T08:02:27;98192.28;;;2.28;86.93
11542;BME280;5827;49.482;7.716;2023-03-11T08:04:29;98185.59;;;2.19;85.96
11542;BME280;5827;49.482;7.716;2023-03-11T08:06:33;98188.22;;;2.39;85.83
11542;BME280;5827;49.482;7.716;2023-03-11T08:08:34;98192.66;;;2.51;85.41
11542;BME280;5827;49.482;7.716;2023-03-11T08:10:38;98200.22;;;2.41;83.95
11542;BME280;5827;49.482;7.716;2023-03-11T08:12:40;98201.00;;;2.55;83.45
11542;BME280;5827;49.482;7.716;2023-03-11T08:14:42;98210.97;;;2.60;82.65
11542;BME280;5827;49.482;7.716;2023-03-11T08:16:44;98211.16;;;2.65;82.16
11542;BME280;5827;49.482;7.716;2023-03-11T08:18:46;98215.84;;;2.76;81.75
11542;BME280;5827;49.482;7.716;2023-03-11T08:20:48;98216.88;;;2.75;79.61
11542;BME280;5827;49.482;7.716;2023-03-11T08:22:49;98223.75;;;2.83;78.24
11542;BME280;5827;49.482;7.716;2023-03-11T08:24:51;98223.75;;;2.89;76.51
11542;BME280;5827;49.482;7.716;2023-03-11T08:26:55;98232.06;;;2.99;76.38
11542;BME280;5827;49.482;7.716;2023-03-11T08:28:58;98228.41;;;2.94;76.19
11542;BME280;5827;49.482;7.716;2023-03-11T08:30:59;98233.09;;;2.98;75.78
11542;BME280;5827;49.482;7.716;2023-03-11T08:33:01;98244.66;;;3.04;74.62
11542;BME280;5827;49.482;7.716;2023-03-11T08:35:03;98243.00;;;3.16;74.40
11542;BME280;5827;49.482;7.716;2023-03-11T08:37:05;98241.78;;;3.19;74.64
11542;BME280;5827;49.482;7.716;2023-03-11T08:39:06;98246.66;;;3.15;72.39
11542;BME280;5827;49.482;7.716;2023-03-11T08:41:08;98252.13;;;3.27;72.86
11542;BME280;5827;49.482;7.716;2023-03-11T08:43:13;98249.25;;;3.28;70.52
11542;BME280;5827;49.482;7.716;2023-03-11T08:45:15;98242.13;;;3.29;71.45
11542;BME280;5827;49.482;7.716;2023-03-11T08:47:17;98251.28;;;3.33;71.81
11542;BME280;5827;49.482;7.716;2023-03-11T08:49:18;98246.84;;;3.27;70.14
11542;BME280;5827;49.482;7.716;2023-03-11T08:51:22;98246.84;;;3.20;70.77
11542;BME280;5827;49.482;7.716;2023-03-11T08:53:23;98246.28;;;3.12;70.57
11542;BME280;5827;49.482;7.716;2023-03-11T08:55:25;98242.19;;;3.16;71.58
11542;BME280;5827;49.482;7.716;2023-03-11T08:57:27;98254.56;;;3.35;70.61
11542;BME280;5827;49.482;7.716;2023-03-11T08:59:30;98247.25;;;3.24;69.92
11542;BME280;5827;49.482;7.716;2023-03-11T09:01:32;98253.88;;;3.53;70.30
11542;BME280;5827;49.482;7.716;2023-03-11T09:03:34;98252.41;;;3.57;69.70
11542;BME280;5827;49.482;7.716;2023-03-11T09:05:36;98260.06;;;3.27;69.07
11542;BME280;5827;49.482;7.716;2023-03-11T09:07:37;98268.28;;;3.64;66.31
11542;BME280;5827;49.482;7.716;2023-03-11T09:09:39;98268.47;;;3.69;65.63
11542;BME280;5827;49.482;7.716;2023-03-11T09:11:41;98299.41;;;3.75;57.73
11542;BME280;5827;49.482;7.716;2023-03-11T09:13:42;98293.84;;;3.90;59.38
11542;BME280;5827;49.482;7.716;2023-03-11T09:15:46;98279.38;;;3.86;60.77
11542;BME280;5827;49.482;7.716;2023-03-11T09:17:48;98289.59;;;3.82;58.80
11542;BME280;5827;49.482;7.716;2023-03-11T09:19:49;98291.53;;;4.00;59.26
11542;BME280;5827;49.482;7.716;2023-03-11T09:21:51;98294.38;;;4.05;58.03
11542;BME280;5827;49.482;7.716;2023-03-11T09:23:52;98287.47;;;3.97;58.50
11542;BME280;5827;49.482;7.716;2023-03-11T09:25:54;98285.38;;;4.06;57.60
11542;BME280;5827;49.482;7.716;2023-03-11T09:27:55;98294.75;;;4.08;57.41
11542;BME280;5827;49.482;7.716;2023-03-11T09:29:57;98298.88;;;3.98;54.59
11542;BME280;5827;49.482;7.716;2023-03-11T09:32:00;98293.88;;;4.15;57.16
11542;BME280;5827;49.482;7.716;2023-03-11T09:34:01;98288.50;;;3.96;56.67
11542;BME280;5827;49.482;7.716;2023-03-11T09:36:03;98299.50;;;3.93;54.80
11542;BME280;5827;49.482;7.716;2023-03-11T09:38:05;98298.22;;;4.09;53.14
11542;BME280;5827;49.482;7.716;2023-03-11T09:40:09;98305.00;;;4.30;53.34
11542;BME280;5827;49.482;7.716;2023-03-11T09:42:18;98298.06;;;4.29;54.62
11542;BME280;5827;49.482;7.716;2023-03-11T09:44:23;98307.38;;;4.13;54.50
11542;BME280;5827;49.482;7.716;2023-03-11T09:46:45;98317.75;;;4.15;52.35
11542;BME280;5827;49.482;7.716;2023-03-11T09:48:54;98318.38;;;4.10;51.49
11542;BME280;5827;49.482;7.716;2023-03-11T09:51:03;98310.69;;;4.02;52.53
11542;BME280;5827;49.482;7.716;2023-03-11T09:53:19;98307.38;;;4.13;53.33
11542;BME280;5827;49.482;7.716;2023-03-11T09:55:32;98302.59;;;4.53;53.28
11542;BME280;5827;49.482;7.716;2023-03-11T09:57:36;98310.06;;;4.88;51.89
11542;BME280;5827;49.482;7.716;2023-03-11T09:59:39;98309.84;;;5.15;51.63
11542;BME280;5827;49.482;7.716;2023-03-11T10:01:44;98317.28;;;5.24;50.96
11542;BME280;5827;49.482;7.716;2023-03-11T10:03:48;98320.91;;;4.87;50.45
11542;BME280;5827;49.482;7.716;2023-03-11T10:05:54;98307.25;;;5.26;51.71
11542;BME280;5827;49.482;7.716;2023-03-11T10:08:02;98315.84;;;5.03;51.75
11542;BME280;5827;49.482;7.716;2023-03-11T10:10:12;98316.34;;;5.19;52.39
11542;BME280;5827;49.482;7.716;2023-03-11T10:12:21;98328.66;;;4.88;50.75
11542;BME280;5827;49.482;7.716;2023-03-11T10:14:40;98329.13;;;4.53;51.25
11542;BME280;5827;49.482;7.716;2023-03-11T10:16:51;98338.72;;;4.79;50.42
11542;BME280;5827;49.482;7.716;2023-03-11T10:19:00;98344.91;;;4.98;50.13
11542;BME280;5827;49.482;7.716;2023-03-11T10:21:10;98337.03;;;4.85;49.89
11542;BME280;5827;49.482;7.716;2023-03-11T10:23:22;98340.00;;;5.20;49.71
11542;BME280;5827;49.482;7.716;2023-03-11T10:25:29;98342.16;;;5.30;49.45
11542;BME280;5827;49.482;7.716;2023-03-11T10:27:36;98344.25;;;5.46;50.63
11542;BME280;5827;49.482;7.716;2023-03-11T10:29:49;98347.28;;;5.68;47.49
11542;BME280;5827;49.482;7.716;2023-03-11T10:31:58;98344.78;;;5.92;48.41
11542;BME280;5827;49.482;7.716;2023-03-11T10:34:03;98350.28;;;6.08;48.21
11542;BME280;5827;49.482;7.716;2023-03-11T10:36:11;98349.03;;;6.11;47.84
11542;BME280;5827;49.482;7.716;2023-03-11T10:38:16;98336.97;;;5.90;49.78
11542;BME280;5827;49.482;7.716;2023-03-11T10:40:25;98330.34;;;5.99;48.92
11542;BME280;5827;49.482;7.716;2023-03-11T10:42:29;98342.44;;;6.14;48.50
11542;BME280;5827;49.482;7.716;2023-03-11T10:44:33;98342.06;;;6.28;50.12
11542;BME280;5827;49.482;7.716;2023-03-11T10:46:36;98346.94;;;6.13;48.72
11542;BME280;5827;49.482;7.716;2023-03-11T10:48:37;98357.25;;;5.91;47.35
11542;BME280;5827;49.482;7.716;2023-03-11T10:50:46;98357.72;;;6.18;47.96
11542;BME280;5827;49.482;7.716;2023-03-11T10:53:08;98350.09;;;6.22;47.97
11542;BME280;5827;49.482;7.716;2023-03-11T10:55:15;98355.78;;;6.25;47.49
11542;BME280;5827;49.482;7.716;2023-03-11T10:57:22;98357.91;;;6.05;47.83
11542;BME280;5827;49.482;7.716;2023-03-11T10:59:27;98358.25;;;6.08;47.46
11542;BME280;5827;49.482;7.716;2023-03-11T11:01:29;98352.22;;;6.01;47.86
11542;BME280;5827;49.482;7.716;2023-03-11T11:03:33;98345.50;;;5.62;48.47
11542;BME280;5827;49.482;7.716;2023-03-11T11:05:34;98350.44;;;5.95;48.47
11542;BME280;5827;49.482;7.716;2023-03-11T11:07:37;98351.31;;;6.07;47.43